createdAt,value
2022-07-25T00:00:45.953Z,19.10
2022-07-25T00:03:14.056Z,19.10
2022-07-25T00:05:45.614Z,19.10
2022-07-25T00:08:12.780Z,19.10
2022-07-25T00:10:39.844Z,19.10
2022-07-25T00:13:07.045Z,19.10
2022-07-25T00:15:34.257Z,19.20
2022-07-25T00:18:01.865Z,19.10
2022-07-25T00:20:28.899Z,19.10
2022-07-25T00:22:56.030Z,19.10
2022-07-25T00:25:23.100Z,19.10
2022-07-25T00:27:50.210Z,19.10
2022-07-25T00:30:17.326Z,19.10
2022-07-25T00:32:44.384Z,19.10
2022-07-25T00:35:11.449Z,19.10
2022-07-25T00:37:38.631Z,19.10
2022-07-25T00:40:06.113Z,19.10
2022-07-25T00:42:33.489Z,19.20
2022-07-25T00:45:00.606Z,19.10
2022-07-25T00:47:27.772Z,19.20
2022-07-25T00:49:54.823Z,19.10
2022-07-25T00:52:23.843Z,19.20
2022-07-25T00:54:51.359Z,19.20
2022-07-25T00:57:18.484Z,19.10
2022-07-25T00:59:45.880Z,19.20
2022-07-25T01:02:12.920Z,19.20
2022-07-25T01:04:40.676Z,19.20
2022-07-25T01:07:08.221Z,19.20
2022-07-25T01:09:35.641Z,19.20
2022-07-25T01:12:02.980Z,19.20
2022-07-25T01:14:30.840Z,19.20
2022-07-25T01:16:57.907Z,19.20
2022-07-25T01:19:25.013Z,19.20
2022-07-25T01:21:52.131Z,19.20
2022-07-25T01:24:19.192Z,19.20
2022-07-25T01:26:46.281Z,19.20
2022-07-25T01:29:13.411Z,19.20
2022-07-25T01:31:40.541Z,19.20
2022-07-25T01:34:07.931Z,19.20
2022-07-25T01:36:35.260Z,19.20
2022-07-25T01:39:02.516Z,19.30
2022-07-25T01:41:29.585Z,19.20
2022-07-25T01:43:56.877Z,19.30
2022-07-25T01:46:24.045Z,19.30
2022-07-25T01:48:51.191Z,19.30
2022-07-25T01:51:19.878Z,19.30
2022-07-25T01:53:48.022Z,19.30
2022-07-25T01:56:15.512Z,19.20
2022-07-25T01:58:42.628Z,19.20
2022-07-25T02:01:09.734Z,19.20
2022-07-25T02:03:36.821Z,19.20
2022-07-25T02:06:06.759Z,19.20
2022-07-25T02:08:34.907Z,19.30
2022-07-25T02:11:02.240Z,19.30
2022-07-25T02:13:29.412Z,19.20
2022-07-25T02:15:56.465Z,19.20
2022-07-25T02:18:23.595Z,19.20
2022-07-25T02:20:50.716Z,19.20
2022-07-25T02:23:17.761Z,19.20
2022-07-25T02:25:44.867Z,19.20
2022-07-25T02:28:11.997Z,19.20
2022-07-25T02:30:39.513Z,19.20
2022-07-25T02:33:06.698Z,19.20
2022-07-25T02:35:33.982Z,19.20
2022-07-25T02:38:01.142Z,19.10
2022-07-25T02:40:28.326Z,19.10
2022-07-25T02:42:55.441Z,19.10
2022-07-25T02:45:22.972Z,19.00
2022-07-25T02:47:50.122Z,19.00
2022-07-25T02:50:17.328Z,19.00
2022-07-25T02:52:44.617Z,19.00
2022-07-25T02:55:12.218Z,18.90
2022-07-25T02:57:39.543Z,18.90
2022-07-25T03:00:07.709Z,18.90
2022-07-25T03:02:34.777Z,18.90
2022-07-25T03:05:01.956Z,18.90
2022-07-25T03:07:29.068Z,18.90
2022-07-25T03:09:56.121Z,18.90
2022-07-25T03:12:23.317Z,18.90
2022-07-25T03:14:50.654Z,18.80
2022-07-25T03:17:17.803Z,18.80
2022-07-25T03:19:45.086Z,18.70
2022-07-25T03:22:12.152Z,18.70
2022-07-25T03:24:39.259Z,18.70
2022-07-25T03:27:06.378Z,18.70
2022-07-25T03:29:33.555Z,18.70
2022-07-25T03:32:00.824Z,18.70
2022-07-25T03:34:28.260Z,18.70
2022-07-25T03:36:55.354Z,18.70
2022-07-25T03:39:22.537Z,18.80
2022-07-25T03:41:49.692Z,18.70
2022-07-25T03:44:16.934Z,18.80
2022-07-25T03:46:43.961Z,18.80
2022-07-25T03:49:11.123Z,18.70
2022-07-25T03:51:38.289Z,18.80
2022-07-25T03:54:06.816Z,18.80
2022-07-25T03:56:45.591Z,18.80
2022-07-25T03:59:15.273Z,18.80
2022-07-25T04:01:44.518Z,18.80
2022-07-25T04:04:11.805Z,18.80
2022-07-25T04:06:39.983Z,18.70
2022-07-25T04:09:08.409Z,18.70
2022-07-25T04:11:36.211Z,18.70
2022-07-25T04:14:04.070Z,18.70
2022-07-25T04:16:32.306Z,18.70
2022-07-25T04:18:59.644Z,18.70
2022-07-25T04:21:28.927Z,18.70
2022-07-25T04:23:56.049Z,18.70
2022-07-25T04:26:23.198Z,18.70
2022-07-25T04:28:50.247Z,18.70
2022-07-25T04:31:17.571Z,18.70
2022-07-25T04:33:45.042Z,18.60
2022-07-25T04:36:12.557Z,18.70
2022-07-25T04:38:39.634Z,18.70
2022-07-25T04:41:06.801Z,18.70
2022-07-25T04:43:33.887Z,18.70
2022-07-25T04:46:01.741Z,18.60
2022-07-25T04:48:29.074Z,18.60
2022-07-25T04:50:56.193Z,18.60
2022-07-25T04:53:23.239Z,18.60
2022-07-25T04:55:50.483Z,18.60
2022-07-25T04:58:17.531Z,18.60
2022-07-25T05:00:44.776Z,18.60
2022-07-25T05:03:12.096Z,18.60
2022-07-25T05:05:39.169Z,18.60
2022-07-25T05:08:06.387Z,18.60
2022-07-25T05:10:33.800Z,18.60
2022-07-25T05:13:00.852Z,18.60
2022-07-25T05:15:27.973Z,18.60
2022-07-25T05:17:55.100Z,18.60
2022-07-25T05:20:22.323Z,18.60
2022-07-25T05:22:49.384Z,18.60
2022-07-25T05:25:16.564Z,18.60
2022-07-25T05:27:43.960Z,18.60
2022-07-25T05:30:12.351Z,18.60
2022-07-25T05:32:40.242Z,18.60
2022-07-25T05:35:09.221Z,18.60
2022-07-25T05:37:37.042Z,18.60
2022-07-25T05:40:06.322Z,18.60
2022-07-25T05:42:33.530Z,18.60
2022-07-25T05:45:01.009Z,18.60
2022-07-25T05:47:28.293Z,18.70
2022-07-25T05:49:55.483Z,18.70
2022-07-25T05:52:22.875Z,18.70
2022-07-25T05:54:51.215Z,18.70
2022-07-25T05:57:18.275Z,18.70
2022-07-25T05:59:46.804Z,18.80
2022-07-25T06:02:14.005Z,18.70
2022-07-25T06:04:41.141Z,18.70
2022-07-25T06:07:08.200Z,18.70
2022-07-25T06:09:35.978Z,18.70
2022-07-25T06:12:03.120Z,18.70
2022-07-25T06:14:31.339Z,18.70
2022-07-25T06:16:58.909Z,18.80
2022-07-25T06:19:25.983Z,18.80
2022-07-25T06:21:53.087Z,18.80
2022-07-25T06:24:20.213Z,18.90
2022-07-25T06:26:47.294Z,18.90
2022-07-25T06:29:14.485Z,18.90
2022-07-25T06:31:41.785Z,18.90
2022-07-25T06:34:13.508Z,18.90
2022-07-25T06:36:40.642Z,18.90
2022-07-25T06:39:07.843Z,19.00
2022-07-25T06:41:36.983Z,19.00
2022-07-25T06:44:04.807Z,19.00
2022-07-25T06:46:33.365Z,19.00
2022-07-25T06:49:00.696Z,19.10
2022-07-25T06:51:27.930Z,19.10
2022-07-25T06:53:55.144Z,19.20
2022-07-25T06:56:22.413Z,19.40
2022-07-25T06:58:49.571Z,19.50
2022-07-25T07:01:16.810Z,19.60
2022-07-25T07:03:44.067Z,19.60
2022-07-25T07:06:11.234Z,19.80
2022-07-25T07:08:38.490Z,19.90
2022-07-25T07:11:07.579Z,20.00
2022-07-25T07:13:34.765Z,20.00
2022-07-25T07:16:01.975Z,20.00
2022-07-25T07:18:29.148Z,20.00
2022-07-25T07:20:56.223Z,20.10
2022-07-25T07:23:24.618Z,20.20
2022-07-25T07:25:51.929Z,20.40
2022-07-25T07:28:20.360Z,20.50
2022-07-25T07:33:34.865Z,20.60
2022-07-25T07:36:02.910Z,20.80
2022-07-25T07:38:30.183Z,20.90
2022-07-25T07:40:57.272Z,20.80
2022-07-25T07:43:29.672Z,21.00
2022-07-25T07:46:01.148Z,21.10
2022-07-25T07:48:29.744Z,21.20
2022-07-25T07:50:58.602Z,21.30
2022-07-25T07:53:44.214Z,21.30
2022-07-25T07:56:12.317Z,21.30
2022-07-25T07:58:39.602Z,21.40
2022-07-25T08:01:07.123Z,21.50
2022-07-25T08:03:34.405Z,21.70
2022-07-25T08:06:01.619Z,21.90
2022-07-25T08:08:31.369Z,22.00
2022-07-25T08:10:59.629Z,22.00
2022-07-25T08:13:31.615Z,22.00
2022-07-25T08:16:03.563Z,22.00
2022-07-25T08:18:33.391Z,22.00
2022-07-25T08:21:03.494Z,22.20
2022-07-25T08:23:32.119Z,22.20
2022-07-25T08:25:59.673Z,22.20
2022-07-25T08:28:27.085Z,22.20
2022-07-25T08:30:54.705Z,22.10
2022-07-25T08:33:21.940Z,22.10
2022-07-25T08:35:53.852Z,22.20
2022-07-25T08:38:22.428Z,22.30
2022-07-25T09:01:09.314Z,22.10
2022-07-25T09:03:36.767Z,22.10
2022-07-25T09:06:17.138Z,22.00
2022-07-25T09:08:58.903Z,21.90
2022-07-25T09:11:29.013Z,21.80
2022-07-25T09:14:15.364Z,21.90
2022-07-25T09:16:44.786Z,21.80
2022-07-25T09:19:14.703Z,21.70
2022-07-25T09:21:43.251Z,21.60
2022-07-25T09:24:17.409Z,21.50
2022-07-25T09:26:46.764Z,21.40
2022-07-25T09:29:23.368Z,21.20
2022-07-25T09:31:51.528Z,21.00
2022-07-25T09:34:34.366Z,20.90
2022-07-25T09:37:03.219Z,20.80
2022-07-25T09:39:45.527Z,20.70
2022-07-25T09:42:19.351Z,20.60
2022-07-25T09:45:03.123Z,20.40
2022-07-25T09:47:32.396Z,20.40
2022-07-25T09:49:59.562Z,20.30
2022-07-25T09:52:26.858Z,20.30
2022-07-25T09:54:55.327Z,20.40
2022-07-25T09:57:24.303Z,20.30
2022-07-25T09:59:51.612Z,20.30
2022-07-25T10:02:44.722Z,20.30
2022-07-25T10:05:21.268Z,20.30
2022-07-25T10:07:51.303Z,20.30
2022-07-25T10:10:25.272Z,20.30
2022-07-25T10:13:08.014Z,20.30
2022-07-25T10:15:46.295Z,20.40
2022-07-25T10:18:15.166Z,20.40
2022-07-25T10:20:43.254Z,20.40
2022-07-25T10:23:26.620Z,20.40
2022-07-25T10:26:08.067Z,20.40
2022-07-25T10:28:42.503Z,20.30
2022-07-25T10:31:21.924Z,20.30
2022-07-25T10:33:55.306Z,20.20
2022-07-25T10:36:23.559Z,20.10
2022-07-25T10:38:57.851Z,20.00
2022-07-25T10:41:28.986Z,20.00
2022-07-25T10:44:02.897Z,19.90
2022-07-25T10:46:31.189Z,19.90
2022-07-25T10:49:05.001Z,19.90
2022-07-25T10:51:41.149Z,19.80
2022-07-25T10:54:17.033Z,19.80
2022-07-25T10:56:57.364Z,19.80
2022-07-25T10:59:29.449Z,19.70
2022-07-25T11:01:57.152Z,19.70
2022-07-25T11:04:24.657Z,19.70
2022-07-25T11:06:51.794Z,19.70
2022-07-25T11:09:28.169Z,19.70
2022-07-25T11:11:59.652Z,19.70
2022-07-25T11:14:33.532Z,19.60
2022-07-25T11:17:23.727Z,19.70
2022-07-25T11:19:55.029Z,19.70
2022-07-25T11:22:22.744Z,19.60
2022-07-25T11:24:49.930Z,19.60
2022-07-25T11:27:23.110Z,19.60
2022-07-25T11:29:50.725Z,19.60
2022-07-25T11:32:18.826Z,19.60
2022-07-25T11:34:52.599Z,19.60
2022-07-25T11:37:21.294Z,19.60
2022-07-25T11:39:49.004Z,19.60
2022-07-25T11:42:19.001Z,19.70
2022-07-25T11:44:49.141Z,19.80
2022-07-25T11:47:28.450Z,19.80
2022-07-25T11:50:01.516Z,19.90
2022-07-25T11:52:34.766Z,20.00
2022-07-25T11:55:10.498Z,20.00
2022-07-25T11:57:40.903Z,20.00
2022-07-25T12:00:26.861Z,20.00
2022-07-25T12:02:54.469Z,20.00
2022-07-25T12:05:31.725Z,19.90
2022-07-25T12:08:07.785Z,19.90
2022-07-25T12:10:36.630Z,19.80
2022-07-25T12:13:04.559Z,19.70
2022-07-25T12:15:35.520Z,19.70
2022-07-25T12:18:03.375Z,19.60
2022-07-25T12:20:34.264Z,19.50
2022-07-25T12:23:07.224Z,19.50
2022-07-25T12:25:36.131Z,19.50
2022-07-25T12:28:03.668Z,19.50
2022-07-25T12:30:31.438Z,19.50
2022-07-25T12:32:59.702Z,19.50
2022-07-25T12:35:27.708Z,19.60
2022-07-25T12:37:56.141Z,19.60
2022-07-25T12:40:23.460Z,19.70
2022-07-25T12:42:51.017Z,19.70
2022-07-25T12:45:18.380Z,19.70
2022-07-25T12:47:47.401Z,19.70
2022-07-25T12:50:16.517Z,19.70
2022-07-25T12:52:44.780Z,19.70
2022-07-25T12:55:15.208Z,19.70
2022-07-25T12:57:42.662Z,19.70
2022-07-25T13:00:13.315Z,19.80
2022-07-25T13:02:40.843Z,19.70
2022-07-25T13:05:08.580Z,19.70
2022-07-25T13:07:35.934Z,19.70
2022-07-25T13:10:04.097Z,19.70
2022-07-25T13:12:31.458Z,19.70
2022-07-25T13:14:59.128Z,19.60
2022-07-25T13:17:27.878Z,19.60
2022-07-25T13:19:56.032Z,19.50
2022-07-25T13:22:23.338Z,19.50
2022-07-25T13:24:50.852Z,19.40
2022-07-25T13:27:22.643Z,19.50
2022-07-25T13:29:56.420Z,19.40
2022-07-25T13:32:24.411Z,19.40
2022-07-25T13:34:51.524Z,19.40
2022-07-25T13:37:18.744Z,19.40
2022-07-25T13:39:45.936Z,19.50
2022-07-25T13:42:13.140Z,19.50
2022-07-25T13:44:40.307Z,19.50
2022-07-25T13:47:07.478Z,19.60
2022-07-25T13:49:34.712Z,19.50
2022-07-25T13:52:01.867Z,19.50
2022-07-25T13:54:28.917Z,19.50
2022-07-25T13:56:56.033Z,19.50
2022-07-25T13:59:23.363Z,19.50
2022-07-25T14:01:51.132Z,19.50
2022-07-25T14:04:18.337Z,19.50
2022-07-25T14:06:45.585Z,19.60
2022-07-25T14:09:12.652Z,19.60
2022-07-25T14:11:39.876Z,19.50
2022-07-25T14:14:07.025Z,19.50
2022-07-25T14:16:34.597Z,19.50
2022-07-25T14:19:02.476Z,19.50
2022-07-25T14:21:30.399Z,19.50
2022-07-25T14:23:57.523Z,19.50
2022-07-25T14:26:24.779Z,19.60
2022-07-25T14:28:52.295Z,19.70
2022-07-25T14:31:19.419Z,19.90
2022-07-25T14:33:46.579Z,20.10
2022-07-25T14:36:13.870Z,20.10
2022-07-25T14:38:40.925Z,20.20
2022-07-25T14:41:12.820Z,20.20
2022-07-25T14:43:41.880Z,20.20
2022-07-25T14:46:09.390Z,20.10
2022-07-25T14:48:38.017Z,20.10
2022-07-25T14:51:05.921Z,20.00
2022-07-25T14:53:34.084Z,19.90
2022-07-25T14:56:03.641Z,19.90
2022-07-25T14:58:31.621Z,19.80
2022-07-25T15:00:58.872Z,19.80
2022-07-25T15:03:26.297Z,19.80
2022-07-25T15:05:53.584Z,19.80
2022-07-25T15:08:20.710Z,19.80
2022-07-25T15:10:48.079Z,19.80
2022-07-25T15:13:31.992Z,19.70
2022-07-25T15:16:00.029Z,19.70
2022-07-25T15:18:27.541Z,19.70
2022-07-25T15:20:55.572Z,19.70
2022-07-25T15:23:25.073Z,19.70
2022-07-25T15:26:03.200Z,19.70
2022-07-25T15:28:34.090Z,19.70
2022-07-25T15:31:01.442Z,19.60
2022-07-25T15:33:29.118Z,19.70
2022-07-25T15:35:56.295Z,19.70
2022-07-25T15:38:24.184Z,19.60
2022-07-25T15:40:51.428Z,19.60
2022-07-25T15:43:18.523Z,19.70
2022-07-25T15:45:46.534Z,19.70
2022-07-25T15:48:15.528Z,19.80
2022-07-25T15:50:45.296Z,19.90
2022-07-25T15:53:12.781Z,20.00
2022-07-25T15:55:41.491Z,20.10
2022-07-25T15:58:09.764Z,20.20
2022-07-25T16:00:38.685Z,20.30
2022-07-25T16:03:06.226Z,20.40
2022-07-25T16:05:34.123Z,20.40
2022-07-25T16:08:02.268Z,20.50
2022-07-25T16:10:33.138Z,20.60
2022-07-25T16:13:01.229Z,20.90
2022-07-25T16:15:28.772Z,21.10
2022-07-25T16:18:01.887Z,21.20
2022-07-25T16:20:31.813Z,21.30
2022-07-25T16:23:00.564Z,21.40
2022-07-25T16:25:28.815Z,21.50
2022-07-25T16:27:56.894Z,21.60
2022-07-25T16:30:24.113Z,21.80
2022-07-25T16:32:51.397Z,21.90
2022-07-25T16:35:18.827Z,21.90
2022-07-25T16:37:45.929Z,21.90
2022-07-25T16:40:14.195Z,21.90
2022-07-25T16:42:41.737Z,22.00
2022-07-25T16:45:09.522Z,22.10
2022-07-25T16:47:37.196Z,22.20
2022-07-25T16:50:04.712Z,22.20
2022-07-25T16:52:31.780Z,22.20
2022-07-25T16:54:59.615Z,22.20
2022-07-25T16:57:26.774Z,22.20
2022-07-25T17:34:30.183Z,21.90
2022-07-25T17:36:57.492Z,21.90
2022-07-25T17:39:25.478Z,21.90
2022-07-25T17:41:52.814Z,21.80
2022-07-25T17:44:20.452Z,21.80
2022-07-25T17:46:50.287Z,21.70
2022-07-25T17:49:17.819Z,21.70
2022-07-25T17:51:45.042Z,21.60
2022-07-25T18:21:17.645Z,27.00
2022-07-25T18:38:36.218Z,23.70
2022-07-25T18:41:27.678Z,23.60
2022-07-25T18:43:52.572Z,23.30
2022-07-25T18:46:20.205Z,23.00
2022-07-25T18:48:47.754Z,22.80
2022-07-25T18:51:15.055Z,22.60
2022-07-25T18:53:46.110Z,22.50
2022-07-25T18:56:15.994Z,22.30
2022-07-25T18:58:44.745Z,22.10
2022-07-25T19:01:12.477Z,22.00
2022-07-25T19:03:40.967Z,21.90
2022-07-25T19:06:09.599Z,21.70
2022-07-25T19:08:37.155Z,21.60
2022-07-25T19:11:04.800Z,21.40
2022-07-25T19:13:48.915Z,21.30
2022-07-25T19:16:17.313Z,21.20
2022-07-25T19:18:44.835Z,21.00
2022-07-25T19:21:11.981Z,20.90
2022-07-25T19:23:39.323Z,20.80
2022-07-25T19:26:06.660Z,20.70
2022-07-25T19:28:35.226Z,20.60
2022-07-25T19:31:02.637Z,20.60
2022-07-25T19:33:34.773Z,20.60
2022-07-25T19:36:04.335Z,20.50
2022-07-25T19:38:32.085Z,20.50
2022-07-25T19:40:59.554Z,20.50
2022-07-25T19:43:27.043Z,20.40
2022-07-25T19:45:54.557Z,20.40
2022-07-25T19:48:24.049Z,20.40
2022-07-25T19:50:52.075Z,20.30
2022-07-25T19:53:19.366Z,20.30
2022-07-25T19:55:46.441Z,20.20
2022-07-25T19:58:14.013Z,20.20
2022-07-25T20:00:41.075Z,20.10
2022-07-25T20:03:08.163Z,20.10
2022-07-25T20:05:35.367Z,20.00
2022-07-25T20:08:02.417Z,20.00
2022-07-25T20:10:29.855Z,20.00
2022-07-25T20:13:01.219Z,20.00
2022-07-25T20:15:29.357Z,20.00
2022-07-25T20:17:57.209Z,19.90
2022-07-25T20:20:25.594Z,19.90
2022-07-25T20:22:53.372Z,19.90
2022-07-25T20:25:21.504Z,19.90
2022-07-25T20:27:51.559Z,19.80
2022-07-25T20:30:19.249Z,19.80
2022-07-25T20:32:46.476Z,19.80
2022-07-25T20:35:13.777Z,19.80
2022-07-25T20:37:40.868Z,19.70
2022-07-25T20:40:09.567Z,19.70
2022-07-25T20:42:37.384Z,19.70
2022-07-25T20:45:06.332Z,19.70
2022-07-25T20:47:34.319Z,19.60
2022-07-25T20:50:01.808Z,19.60
2022-07-25T20:52:30.580Z,19.60
2022-07-25T20:54:57.771Z,19.50
2022-07-25T20:57:24.959Z,19.50
2022-07-25T20:59:52.043Z,19.40
2022-07-25T21:02:19.409Z,19.40
2022-07-25T21:04:48.762Z,19.20
2022-07-25T21:07:16.948Z,19.30
2022-07-25T21:09:44.464Z,19.20
2022-07-25T21:12:11.586Z,19.20
2022-07-25T21:14:38.735Z,19.10
2022-07-25T21:17:06.129Z,19.10
2022-07-25T21:19:33.258Z,19.10
2022-07-25T21:22:00.308Z,19.00
2022-07-25T21:24:27.515Z,18.90
2022-07-25T21:26:54.558Z,18.80
2022-07-25T21:29:21.628Z,18.80
2022-07-25T21:31:49.501Z,18.70
2022-07-25T21:34:16.741Z,18.60
2022-07-25T21:36:43.892Z,18.50
2022-07-25T21:39:11.184Z,18.50
2022-07-25T21:41:38.341Z,18.40
2022-07-25T21:44:05.660Z,18.30
2022-07-25T21:46:32.931Z,18.20
2022-07-25T21:49:18.534Z,18.10
2022-07-25T21:52:05.889Z,18.10
2022-07-25T21:54:33.560Z,18.00
2022-07-25T21:57:00.626Z,17.90
2022-07-25T21:59:27.825Z,17.90
2022-07-25T22:01:54.973Z,17.90
2022-07-25T22:04:22.335Z,17.90
2022-07-25T22:06:49.472Z,17.80
2022-07-25T22:09:16.558Z,17.80
2022-07-25T22:11:46.148Z,17.70
2022-07-25T22:14:14.314Z,17.70
2022-07-25T22:16:41.771Z,17.60
2022-07-25T22:19:09.542Z,17.60
2022-07-25T22:21:37.011Z,17.60
2022-07-25T22:24:04.238Z,17.50
2022-07-25T22:26:31.299Z,17.50
2022-07-25T22:28:58.419Z,17.50
2022-07-25T22:31:25.580Z,17.50
2022-07-25T22:33:52.915Z,17.50
2022-07-25T22:36:20.696Z,17.40
2022-07-25T22:38:47.953Z,17.40
2022-07-25T22:41:15.042Z,17.40
2022-07-25T22:43:56.541Z,17.40
2022-07-25T22:46:25.716Z,17.40
2022-07-25T22:48:53.067Z,17.40
2022-07-25T22:51:20.498Z,17.40
2022-07-25T22:53:47.586Z,17.40
2022-07-25T22:56:14.910Z,17.40
2022-07-25T22:58:41.997Z,17.50
2022-07-25T23:01:09.476Z,17.50
2022-07-25T23:03:36.739Z,17.40
2022-07-25T23:06:04.459Z,17.40
2022-07-25T23:08:31.590Z,17.30
2022-07-25T23:10:58.760Z,17.30
2022-07-25T23:13:25.858Z,17.20
2022-07-25T23:15:52.932Z,17.10
2022-07-25T23:18:20.153Z,17.10
2022-07-25T23:20:47.606Z,17.10
2022-07-25T23:23:14.675Z,17.10
2022-07-25T23:25:41.964Z,17.10
2022-07-25T23:28:09.005Z,17.20
2022-07-25T23:30:40.249Z,17.20
2022-07-25T23:33:08.671Z,17.20
2022-07-25T23:35:35.851Z,17.20
2022-07-25T23:38:03.828Z,17.20
2022-07-25T23:40:31.193Z,17.20
2022-07-25T23:42:58.274Z,17.30
2022-07-25T23:45:27.618Z,17.30
2022-07-25T23:47:55.854Z,17.30
2022-07-25T23:50:23.836Z,17.30
2022-07-25T23:52:51.860Z,17.30
2022-07-25T23:55:19.128Z,17.30
2022-07-25T23:57:46.688Z,17.30
